sensor_id;sensor_type;location;lat;lon;timestamp;P1;durP1;ratioP1;P2;durP2;ratioP2
45338;SDS011;31071;51.478;5.710;2023-04-15T00:00:12;16.80;;;7.78;;
45338;SDS011;31071;51.478;5.710;2023-04-15T00:02:37;15.57;;;7.32;;
45338;SDS011;31071;51.478;5.710;2023-04-15T00:05:03;14.57;;;7.43;;
45338;SDS011;31071;51.478;5.710;2023-04-15T00:07:30;14.10;;;8.10;;
45338;SDS011;31071;51.478;5.710;2023-04-15T00:09:55;15.20;;;7.55;;
45338;SDS011;31071;51.478;5.710;2023-04-15T00:12:26;13.15;;;7.63;;
45338;SDS011;31071;51.478;5.710;2023-04-15T00:14:52;13.93;;;7.45;;
45338;SDS011;31071;51.478;5.710;2023-04-15T00:17:18;11.38;;;7.43;;
45338;SDS011;31071;51.478;5.710;2023-04-15T00:19:44;18.25;;;9.00;;
45338;SDS011;31071;51.478;5.710;2023-04-15T00:22:09;15.50;;;8.95;;
45338;SDS011;31071;51.478;5.710;2023-04-15T00:24:36;14.98;;;8.30;;
45338;SDS011;31071;51.478;5.710;2023-04-15T00:27:01;16.60;;;9.23;;
45338;SDS011;31071;51.478;5.710;2023-04-15T00:29:27;17.63;;;9.20;;
45338;SDS011;31071;51.478;5.710;2023-04-15T00:31:53;15.55;;;8.43;;
45338;SDS011;31071;51.478;5.710;2023-04-15T00:34:19;13.40;;;8.27;;
45338;SDS011;31071;51.478;5.710;2023-04-15T00:36:45;11.02;;;7.95;;
45338;SDS011;31071;51.478;5.710;2023-04-15T00:39:10;14.07;;;8.95;;
45338;SDS011;31071;51.478;5.710;2023-04-15T00:41:36;13.77;;;9.05;;
45338;SDS011;31071;51.478;5.710;2023-04-15T00:44:04;19.13;;;8.88;;
45338;SDS011;31071;51.478;5.710;2023-04-15T00:46:30;19.65;;;8.90;;
45338;SDS011;31071;51.478;5.710;2023-04-15T00:48:59;15.95;;;9.43;;
45338;SDS011;31071;51.478;5.710;2023-04-15T00:51:25;16.40;;;9.30;;
45338;SDS011;31071;51.478;5.710;2023-04-15T00:53:50;14.88;;;8.95;;
45338;SDS011;31071;51.478;5.710;2023-04-15T00:56:16;18.90;;;9.88;;
45338;SDS011;31071;51.478;5.710;2023-04-15T00:58:42;15.88;;;8.57;;
45338;SDS011;31071;51.478;5.710;2023-04-15T01:01:07;13.93;;;8.85;;
45338;SDS011;31071;51.478;5.710;2023-04-15T01:03:33;18.00;;;9.82;;
45338;SDS011;31071;51.478;5.710;2023-04-15T01:05:59;15.82;;;10.27;;
45338;SDS011;31071;51.478;5.710;2023-04-15T01:08:27;13.90;;;9.27;;
45338;SDS011;31071;51.478;5.710;2023-04-15T01:10:57;16.60;;;9.65;;
45338;SDS011;31071;51.478;5.710;2023-04-15T01:13:26;18.50;;;9.87;;
45338;SDS011;31071;51.478;5.710;2023-04-15T01:15:52;15.27;;;9.45;;
45338;SDS011;31071;51.478;5.710;2023-04-15T01:18:18;17.83;;;9.77;;
45338;SDS011;31071;51.478;5.710;2023-04-15T01:20:44;15.23;;;9.27;;
45338;SDS011;31071;51.478;5.710;2023-04-15T01:23:10;12.60;;;8.85;;
45338;SDS011;31071;51.478;5.710;2023-04-15T01:25:37;14.65;;;9.50;;
45338;SDS011;31071;51.478;5.710;2023-04-15T01:28:03;14.48;;;10.13;;
45338;SDS011;31071;51.478;5.710;2023-04-15T01:30:28;18.98;;;9.93;;
45338;SDS011;31071;51.478;5.710;2023-04-15T01:32:58;18.98;;;10.40;;
45338;SDS011;31071;51.478;5.710;2023-04-15T01:35:24;20.10;;;10.00;;
45338;SDS011;31071;51.478;5.710;2023-04-15T01:37:49;16.67;;;9.43;;
45338;SDS011;31071;51.478;5.710;2023-04-15T01:40:15;15.60;;;9.73;;
45338;SDS011;31071;51.478;5.710;2023-04-15T01:42:41;16.83;;;10.13;;
45338;SDS011;31071;51.478;5.710;2023-04-15T01:45:06;19.95;;;10.20;;
45338;SDS011;31071;51.478;5.710;2023-04-15T01:47:32;17.10;;;10.30;;
45338;SDS011;31071;51.478;5.710;2023-04-15T01:49:58;17.27;;;9.52;;
45338;SDS011;31071;51.478;5.710;2023-04-15T01:52:23;16.15;;;9.70;;
45338;SDS011;31071;51.478;5.710;2023-04-15T01:54:49;21.58;;;10.82;;
45338;SDS011;31071;51.478;5.710;2023-04-15T01:57:15;17.02;;;9.80;;
45338;SDS011;31071;51.478;5.710;2023-04-15T01:59:41;16.23;;;10.52;;
45338;SDS011;31071;51.478;5.710;2023-04-15T02:02:06;16.83;;;10.43;;
45338;SDS011;31071;51.478;5.710;2023-04-15T02:04:32;16.35;;;9.93;;
45338;SDS011;31071;51.478;5.710;2023-04-15T02:06:58;16.10;;;10.10;;
45338;SDS011;31071;51.478;5.710;2023-04-15T02:09:23;15.90;;;10.25;;
45338;SDS011;31071;51.478;5.710;2023-04-15T02:11:49;20.10;;;10.80;;
45338;SDS011;31071;51.478;5.710;2023-04-15T02:14:16;18.42;;;10.00;;
45338;SDS011;31071;51.478;5.710;2023-04-15T02:16:42;20.05;;;11.00;;
45338;SDS011;31071;51.478;5.710;2023-04-15T02:19:07;17.50;;;10.70;;
45338;SDS011;31071;51.478;5.710;2023-04-15T02:21:33;21.40;;;11.45;;
45338;SDS011;31071;51.478;5.710;2023-04-15T02:23:59;17.92;;;11.30;;
45338;SDS011;31071;51.478;5.710;2023-04-15T02:26:26;19.00;;;11.48;;
45338;SDS011;31071;51.478;5.710;2023-04-15T02:28:52;15.98;;;11.25;;
45338;SDS011;31071;51.478;5.710;2023-04-15T02:31:17;19.17;;;12.10;;
45338;SDS011;31071;51.478;5.710;2023-04-15T02:33:43;16.40;;;10.80;;
45338;SDS011;31071;51.478;5.710;2023-04-15T02:36:09;15.95;;;11.20;;
45338;SDS011;31071;51.478;5.710;2023-04-15T02:38:36;19.10;;;11.57;;
45338;SDS011;31071;51.478;5.710;2023-04-15T02:41:02;17.48;;;11.80;;
45338;SDS011;31071;51.478;5.710;2023-04-15T02:43:28;18.25;;;12.00;;
45338;SDS011;31071;51.478;5.710;2023-04-15T02:45:54;20.38;;;12.27;;
45338;SDS011;31071;51.478;5.710;2023-04-15T02:48:19;16.52;;;11.63;;
45338;SDS011;31071;51.478;5.710;2023-04-15T02:50:46;15.75;;;10.80;;
45338;SDS011;31071;51.478;5.710;2023-04-15T02:53:12;16.00;;;11.27;;
45338;SDS011;31071;51.478;5.710;2023-04-15T02:55:38;18.27;;;11.88;;
45338;SDS011;31071;51.478;5.710;2023-04-15T02:58:04;16.13;;;11.15;;
45338;SDS011;31071;51.478;5.710;2023-04-15T03:00:30;16.23;;;11.40;;
45338;SDS011;31071;51.478;5.710;2023-04-15T03:03:00;19.80;;;11.15;;
45338;SDS011;31071;51.478;5.710;2023-04-15T03:05:27;18.98;;;11.43;;
45338;SDS011;31071;51.478;5.710;2023-04-15T03:07:53;17.67;;;11.27;;
45338;SDS011;31071;51.478;5.710;2023-04-15T03:10:18;22.63;;;11.52;;
45338;SDS011;31071;51.478;5.710;2023-04-15T03:12:45;18.52;;;11.98;;
45338;SDS011;31071;51.478;5.710;2023-04-15T03:15:10;17.60;;;11.07;;
45338;SDS011;31071;51.478;5.710;2023-04-15T03:17:36;19.70;;;10.82;;
45338;SDS011;31071;51.478;5.710;2023-04-15T03:20:02;19.38;;;11.60;;
45338;SDS011;31071;51.478;5.710;2023-04-15T03:22:29;20.33;;;11.10;;
45338;SDS011;31071;51.478;5.710;2023-04-15T03:24:55;16.52;;;11.10;;
45338;SDS011;31071;51.478;5.710;2023-04-15T03:27:21;15.02;;;10.85;;
45338;SDS011;31071;51.478;5.710;2023-04-15T03:29:46;19.13;;;11.13;;
45338;SDS011;31071;51.478;5.710;2023-04-15T03:32:12;16.08;;;10.93;;
45338;SDS011;31071;51.478;5.710;2023-04-15T03:34:39;19.25;;;11.07;;
45338;SDS011;31071;51.478;5.710;2023-04-15T03:37:05;19.50;;;11.07;;
45338;SDS011;31071;51.478;5.710;2023-04-15T03:39:30;17.63;;;11.13;;
45338;SDS011;31071;51.478;5.710;2023-04-15T03:41:56;17.58;;;11.55;;
45338;SDS011;31071;51.478;5.710;2023-04-15T03:44:23;16.00;;;11.07;;
45338;SDS011;31071;51.478;5.710;2023-04-15T03:46:48;18.75;;;11.48;;
45338;SDS011;31071;51.478;5.710;2023-04-15T03:49:14;21.83;;;11.65;;
45338;SDS011;31071;51.478;5.710;2023-04-15T03:51:40;16.40;;;11.70;;
45338;SDS011;31071;51.478;5.710;2023-04-15T03:54:05;21.20;;;11.82;;
45338;SDS011;31071;51.478;5.710;2023-04-15T03:56:31;19.65;;;11.20;;
45338;SDS011;31071;51.478;5.710;2023-04-15T03:58:56;17.33;;;11.32;;
45338;SDS011;31071;51.478;5.710;2023-04-15T04:01:22;15.85;;;11.55;;
45338;SDS011;31071;51.478;5.710;2023-04-15T04:03:47;13.05;;;10.32;;
45338;SDS011;31071;51.478;5.710;2023-04-15T04:06:13;23.50;;;12.90;;
45338;SDS011;31071;51.478;5.710;2023-04-15T04:08:39;14.07;;;10.80;;
45338;SDS011;31071;51.478;5.710;2023-04-15T04:11:05;13.93;;;10.32;;
45338;SDS011;31071;51.478;5.710;2023-04-15T04:13:30;16.70;;;11.40;;
45338;SDS011;31071;51.478;5.710;2023-04-15T04:15:56;17.33;;;11.57;;
45338;SDS011;31071;51.478;5.710;2023-04-15T04:18:21;17.70;;;11.60;;
45338;SDS011;31071;51.478;5.710;2023-04-15T04:20:47;17.30;;;11.50;;
45338;SDS011;31071;51.478;5.710;2023-04-15T04:23:13;18.27;;;11.70;;
45338;SDS011;31071;51.478;5.710;2023-04-15T04:25:38;19.50;;;11.02;;
45338;SDS011;31071;51.478;5.710;2023-04-15T04:28:04;19.45;;;10.80;;
45338;SDS011;31071;51.478;5.710;2023-04-15T04:30:29;18.20;;;11.48;;
45338;SDS011;31071;51.478;5.710;2023-04-15T04:32:55;17.45;;;11.45;;
45338;SDS011;31071;51.478;5.710;2023-04-15T04:35:20;16.33;;;12.10;;
45338;SDS011;31071;51.478;5.710;2023-04-15T04:37:46;19.00;;;12.20;;
45338;SDS011;31071;51.478;5.710;2023-04-15T04:40:12;18.30;;;11.90;;
45338;SDS011;31071;51.478;5.710;2023-04-15T04:42:37;17.60;;;10.82;;
45338;SDS011;31071;51.478;5.710;2023-04-15T04:45:03;18.83;;;11.73;;
45338;SDS011;31071;51.478;5.710;2023-04-15T04:47:29;19.77;;;11.82;;
45338;SDS011;31071;51.478;5.710;2023-04-15T04:49:55;20.75;;;12.38;;
45338;SDS011;31071;51.478;5.710;2023-04-15T04:52:20;19.40;;;12.00;;
45338;SDS011;31071;51.478;5.710;2023-04-15T04:54:46;19.90;;;12.00;;
45338;SDS011;31071;51.478;5.710;2023-04-15T04:57:11;17.95;;;11.80;;
45338;SDS011;31071;51.478;5.710;2023-04-15T04:59:37;17.33;;;11.77;;
45338;SDS011;31071;51.478;5.710;2023-04-15T05:02:03;19.23;;;12.20;;
45338;SDS011;31071;51.478;5.710;2023-04-15T05:04:29;20.67;;;12.38;;
45338;SDS011;31071;51.478;5.710;2023-04-15T05:06:56;18.88;;;11.75;;
45338;SDS011;31071;51.478;5.710;2023-04-15T05:09:22;17.90;;;12.60;;
45338;SDS011;31071;51.478;5.710;2023-04-15T05:11:47;18.63;;;12.00;;
45338;SDS011;31071;51.478;5.710;2023-04-15T05:14:13;17.27;;;11.23;;
45338;SDS011;31071;51.478;5.710;2023-04-15T05:16:38;18.02;;;11.80;;
45338;SDS011;31071;51.478;5.710;2023-04-15T05:19:04;19.88;;;11.98;;
45338;SDS011;31071;51.478;5.710;2023-04-15T05:21:29;17.40;;;11.68;;
45338;SDS011;31071;51.478;5.710;2023-04-15T05:23:55;24.73;;;13.35;;
45338;SDS011;31071;51.478;5.710;2023-04-15T05:26:21;19.98;;;13.88;;
45338;SDS011;31071;51.478;5.710;2023-04-15T05:28:48;20.40;;;12.73;;
45338;SDS011;31071;51.478;5.710;2023-04-15T05:31:14;21.48;;;12.93;;
45338;SDS011;31071;51.478;5.710;2023-04-15T05:33:40;21.45;;;12.85;;
45338;SDS011;31071;51.478;5.710;2023-04-15T05:36:05;22.70;;;13.38;;
45338;SDS011;31071;51.478;5.710;2023-04-15T05:38:31;22.33;;;13.13;;
45338;SDS011;31071;51.478;5.710;2023-04-15T05:40:57;20.83;;;12.07;;
45338;SDS011;31071;51.478;5.710;2023-04-15T05:43:22;23.15;;;14.13;;
45338;SDS011;31071;51.478;5.710;2023-04-15T05:45:48;21.63;;;14.23;;
45338;SDS011;31071;51.478;5.710;2023-04-15T05:48:13;22.25;;;14.10;;
45338;SDS011;31071;51.478;5.710;2023-04-15T05:50:40;22.60;;;13.82;;
45338;SDS011;31071;51.478;5.710;2023-04-15T05:53:06;19.02;;;12.50;;
45338;SDS011;31071;51.478;5.710;2023-04-15T05:55:32;19.95;;;13.27;;
45338;SDS011;31071;51.478;5.710;2023-04-15T05:57:58;21.02;;;13.25;;
45338;SDS011;31071;51.478;5.710;2023-04-15T06:00:23;19.10;;;13.02;;
45338;SDS011;31071;51.478;5.710;2023-04-15T06:02:49;20.30;;;13.95;;
45338;SDS011;31071;51.478;5.710;2023-04-15T06:05:15;21.80;;;13.68;;
45338;SDS011;31071;51.478;5.710;2023-04-15T06:07:41;21.25;;;14.23;;
45338;SDS011;31071;51.478;5.710;2023-04-15T06:10:07;22.52;;;14.00;;
45338;SDS011;31071;51.478;5.710;2023-04-15T06:12:33;19.30;;;13.60;;
45338;SDS011;31071;51.478;5.710;2023-04-15T06:14:59;18.90;;;13.27;;
45338;SDS011;31071;51.478;5.710;2023-04-15T06:17:25;24.25;;;14.15;;
45338;SDS011;31071;51.478;5.710;2023-04-15T06:19:51;26.77;;;15.35;;
45338;SDS011;31071;51.478;5.710;2023-04-15T06:22:20;22.67;;;14.75;;
45338;SDS011;31071;51.478;5.710;2023-04-15T06:24:47;19.30;;;14.27;;
45338;SDS011;31071;51.478;5.710;2023-04-15T06:27:14;20.83;;;14.63;;
45338;SDS011;31071;51.478;5.710;2023-04-15T06:29:40;22.05;;;14.57;;
45338;SDS011;31071;51.478;5.710;2023-04-15T06:32:06;20.90;;;14.68;;
45338;SDS011;31071;51.478;5.710;2023-04-15T06:34:31;19.92;;;14.00;;
45338;SDS011;31071;51.478;5.710;2023-04-15T06:36:57;21.30;;;14.68;;
45338;SDS011;31071;51.478;5.710;2023-04-15T06:39:22;23.80;;;15.02;;
45338;SDS011;31071;51.478;5.710;2023-04-15T06:41:48;24.27;;;15.48;;
45338;SDS011;31071;51.478;5.710;2023-04-15T06:44:13;22.55;;;15.18;;
45338;SDS011;31071;51.478;5.710;2023-04-15T06:46:39;23.17;;;15.25;;
45338;SDS011;31071;51.478;5.710;2023-04-15T06:49:05;23.65;;;15.50;;
45338;SDS011;31071;51.478;5.710;2023-04-15T06:51:31;20.90;;;14.80;;
45338;SDS011;31071;51.478;5.710;2023-04-15T06:53:56;21.05;;;14.35;;
45338;SDS011;31071;51.478;5.710;2023-04-15T06:56:22;22.75;;;14.15;;
45338;SDS011;31071;51.478;5.710;2023-04-15T06:58:48;20.27;;;13.98;;
45338;SDS011;31071;51.478;5.710;2023-04-15T07:01:16;18.90;;;13.65;;
45338;SDS011;31071;51.478;5.710;2023-04-15T07:03:42;18.20;;;13.02;;
45338;SDS011;31071;51.478;5.710;2023-04-15T07:06:08;19.08;;;13.55;;
45338;SDS011;31071;51.478;5.710;2023-04-15T07:08:34;15.57;;;12.52;;
45338;SDS011;31071;51.478;5.710;2023-04-15T07:10:59;16.38;;;11.63;;
45338;SDS011;31071;51.478;5.710;2023-04-15T07:13:26;18.85;;;12.85;;
45338;SDS011;31071;51.478;5.710;2023-04-15T07:15:51;16.95;;;13.02;;
45338;SDS011;31071;51.478;5.710;2023-04-15T07:18:17;16.60;;;12.95;;
45338;SDS011;31071;51.478;5.710;2023-04-15T07:20:42;18.52;;;13.63;;
45338;SDS011;31071;51.478;5.710;2023-04-15T07:23:08;17.40;;;12.88;;
45338;SDS011;31071;51.478;5.710;2023-04-15T07:25:34;18.75;;;12.32;;
45338;SDS011;31071;51.478;5.710;2023-04-15T07:27:59;16.33;;;12.50;;
45338;SDS011;31071;51.478;5.710;2023-04-15T07:30:25;19.95;;;13.20;;
45338;SDS011;31071;51.478;5.710;2023-04-15T07:32:51;18.95;;;12.73;;
45338;SDS011;31071;51.478;5.710;2023-04-15T07:35:17;22.52;;;12.63;;
45338;SDS011;31071;51.478;5.710;2023-04-15T07:37:45;17.00;;;12.70;;
45338;SDS011;31071;51.478;5.710;2023-04-15T07:40:10;19.50;;;13.23;;
45338;SDS011;31071;51.478;5.710;2023-04-15T07:42:38;16.95;;;12.20;;
45338;SDS011;31071;51.478;5.710;2023-04-15T07:45:04;15.73;;;11.35;;
45338;SDS011;31071;51.478;5.710;2023-04-15T07:47:30;19.20;;;12.70;;
45338;SDS011;31071;51.478;5.710;2023-04-15T07:49:56;16.67;;;11.60;;
45338;SDS011;31071;51.478;5.710;2023-04-15T07:52:21;16.55;;;11.77;;
45338;SDS011;31071;51.478;5.710;2023-04-15T07:54:47;17.58;;;11.30;;
45338;SDS011;31071;51.478;5.710;2023-04-15T07:57:12;14.18;;;10.55;;
45338;SDS011;31071;51.478;5.710;2023-04-15T07:59:38;16.33;;;11.75;;
45338;SDS011;31071;51.478;5.710;2023-04-15T08:02:04;12.57;;;9.82;;
45338;SDS011;31071;51.478;5.710;2023-04-15T08:04:29;12.57;;;10.18;;
45338;SDS011;31071;51.478;5.710;2023-04-15T08:06:55;19.95;;;11.68;;
45338;SDS011;31071;51.478;5.710;2023-04-15T08:09:20;20.38;;;11.23;;
45338;SDS011;31071;51.478;5.710;2023-04-15T08:11:47;11.73;;;8.80;;
45338;SDS011;31071;51.478;5.710;2023-04-15T08:14:14;10.32;;;7.88;;
45338;SDS011;31071;51.478;5.710;2023-04-15T08:16:40;9.63;;;6.80;;
45338;SDS011;31071;51.478;5.710;2023-04-15T08:19:06;10.25;;;7.03;;
45338;SDS011;31071;51.478;5.710;2023-04-15T08:21:31;7.93;;;7.00;;
45338;SDS011;31071;51.478;5.710;2023-04-15T08:23:57;8.63;;;7.03;;
45338;SDS011;31071;51.478;5.710;2023-04-15T08:26:24;9.45;;;6.68;;
45338;SDS011;31071;51.478;5.710;2023-04-15T08:28:49;9.15;;;7.18;;
45338;SDS011;31071;51.478;5.710;2023-04-15T08:31:15;7.60;;;6.80;;
45338;SDS011;31071;51.478;5.710;2023-04-15T08:33:42;10.57;;;6.30;;
45338;SDS011;31071;51.478;5.710;2023-04-15T08:36:08;9.15;;;6.63;;
45338;SDS011;31071;51.478;5.710;2023-04-15T08:38:34;8.93;;;6.78;;
45338;SDS011;31071;51.478;5.710;2023-04-15T08:41:03;8.85;;;6.65;;
45338;SDS011;31071;51.478;5.710;2023-04-15T08:43:36;11.48;;;7.32;;
45338;SDS011;31071;51.478;5.710;2023-04-15T08:46:10;9.13;;;7.32;;
45338;SDS011;31071;51.478;5.710;2023-04-15T08:48:37;10.82;;;7.88;;
45338;SDS011;31071;51.478;5.710;2023-04-15T08:51:04;10.88;;;7.45;;
45338;SDS011;31071;51.478;5.710;2023-04-15T08:53:30;10.30;;;7.43;;
45338;SDS011;31071;51.478;5.710;2023-04-15T08:55:56;8.50;;;6.38;;
45338;SDS011;31071;51.478;5.710;2023-04-15T08:58:23;11.82;;;6.90;;
45338;SDS011;31071;51.478;5.710;2023-04-15T09:00:50;9.95;;;7.10;;
45338;SDS011;31071;51.478;5.710;2023-04-15T09:03:15;11.23;;;7.07;;
45338;SDS011;31071;51.478;5.710;2023-04-15T09:05:45;15.20;;;7.32;;
45338;SDS011;31071;51.478;5.710;2023-04-15T09:08:12;7.50;;;6.22;;
45338;SDS011;31071;51.478;5.710;2023-04-15T09:10:37;12.38;;;6.63;;
45338;SDS011;31071;51.478;5.710;2023-04-15T09:13:03;8.93;;;6.18;;
45338;SDS011;31071;51.478;5.710;2023-04-15T09:15:28;8.15;;;6.03;;
45338;SDS011;31071;51.478;5.710;2023-04-15T09:17:57;7.57;;;5.75;;
45338;SDS011;31071;51.478;5.710;2023-04-15T09:20:22;7.03;;;5.88;;
45338;SDS011;31071;51.478;5.710;2023-04-15T09:22:48;8.30;;;5.30;;
45338;SDS011;31071;51.478;5.710;2023-04-15T09:27:51;5.65;;;4.05;;
45338;SDS011;31071;51.478;5.710;2023-04-15T09:30:18;5.32;;;4.22;;
45338;SDS011;31071;51.478;5.710;2023-04-15T09:32:57;4.97;;;4.13;;
45338;SDS011;31071;51.478;5.710;2023-04-15T09:35:58;6.00;;;5.03;;
45338;SDS011;31071;51.478;5.710;2023-04-15T09:38:31;5.25;;;4.63;;
45338;SDS011;31071;51.478;5.710;2023-04-15T09:49:27;6.25;;;4.10;;
45338;SDS011;31071;51.478;5.710;2023-04-15T09:52:20;5.03;;;4.22;;
45338;SDS011;31071;51.478;5.710;2023-04-15T09:54:45;6.60;;;4.78;;
45338;SDS011;31071;51.478;5.710;2023-04-15T09:57:20;5.63;;;4.60;;
45338;SDS011;31071;51.478;5.710;2023-04-15T09:59:47;6.18;;;4.68;;
45338;SDS011;31071;51.478;5.710;2023-04-15T10:02:17;5.50;;;4.78;;
45338;SDS011;31071;51.478;5.710;2023-04-15T10:04:46;5.07;;;4.53;;
45338;SDS011;31071;51.478;5.710;2023-04-15T10:07:13;8.88;;;4.10;;
45338;SDS011;31071;51.478;5.710;2023-04-15T10:09:39;5.22;;;4.72;;
45338;SDS011;31071;51.478;5.710;2023-04-15T10:12:10;6.05;;;4.55;;
45338;SDS011;31071;51.478;5.710;2023-04-15T10:14:37;5.88;;;4.72;;
45338;SDS011;31071;51.478;5.710;2023-04-15T10:17:10;4.78;;;4.28;;
45338;SDS011;31071;51.478;5.710;2023-04-15T10:19:41;5.47;;;4.13;;
45338;SDS011;31071;51.478;5.710;2023-04-15T10:22:07;4.55;;;4.13;;
45338;SDS011;31071;51.478;5.710;2023-04-15T10:24:33;6.07;;;3.95;;
45338;SDS011;31071;51.478;5.710;2023-04-15T10:26:59;4.20;;;3.78;;
45338;SDS011;31071;51.478;5.710;2023-04-15T10:29:27;3.90;;;3.30;;
45338;SDS011;31071;51.478;5.710;2023-04-15T10:31:57;4.65;;;2.83;;
45338;SDS011;31071;51.478;5.710;2023-04-15T10:34:23;3.70;;;2.70;;
45338;SDS011;31071;51.478;5.710;2023-04-15T10:36:50;5.88;;;3.00;;
45338;SDS011;31071;51.478;5.710;2023-04-15T10:42:07;4.97;;;3.65;;
45338;SDS011;31071;51.478;5.710;2023-04-15T10:44:35;4.18;;;3.40;;
45338;SDS011;31071;51.478;5.710;2023-04-15T10:47:03;3.13;;;2.83;;
45338;SDS011;31071;51.478;5.710;2023-04-15T10:49:34;5.05;;;3.58;;
45338;SDS011;31071;51.478;5.710;2023-04-15T10:52:24;3.42;;;2.88;;
45338;SDS011;31071;51.478;5.710;2023-04-15T10:57:38;6.13;;;4.00;;
45338;SDS011;31071;51.478;5.710;2023-04-15T11:00:11;5.28;;;3.63;;
45338;SDS011;31071;51.478;5.710;2023-04-15T11:02:39;4.30;;;3.90;;
45338;SDS011;31071;51.478;5.710;2023-04-15T11:05:06;3.72;;;3.30;;
45338;SDS011;31071;51.478;5.710;2023-04-15T11:07:37;5.78;;;3.45;;
45338;SDS011;31071;51.478;5.710;2023-04-15T11:13:14;4.75;;;2.88;;
45338;SDS011;31071;51.478;5.710;2023-04-15T11:15:43;3.30;;;2.97;;
45338;SDS011;31071;51.478;5.710;2023-04-15T11:20:53;3.87;;;3.23;;
45338;SDS011;31071;51.478;5.710;2023-04-15T11:23:27;3.80;;;3.25;;
45338;SDS011;31071;51.478;5.710;2023-04-15T11:25:57;4.18;;;3.55;;
45338;SDS011;31071;51.478;5.710;2023-04-15T11:28:25;6.07;;;4.07;;
45338;SDS011;31071;51.478;5.710;2023-04-15T11:30:54;3.78;;;3.30;;
45338;SDS011;31071;51.478;5.710;2023-04-15T11:33:21;4.35;;;3.72;;
45338;SDS011;31071;51.478;5.710;2023-04-15T11:35:48;5.88;;;4.13;;
45338;SDS011;31071;51.478;5.710;2023-04-15T11:38:13;5.93;;;3.80;;
45338;SDS011;31071;51.478;5.710;2023-04-15T11:40:40;4.35;;;3.28;;
45338;SDS011;31071;51.478;5.710;2023-04-15T11:43:08;4.65;;;3.60;;
45338;SDS011;31071;51.478;5.710;2023-04-15T11:45:35;4.30;;;3.38;;
45338;SDS011;31071;51.478;5.710;2023-04-15T11:48:09;3.95;;;3.25;;
45338;SDS011;31071;51.478;5.710;2023-04-15T11:50:36;5.10;;;3.47;;
45338;SDS011;31071;51.478;5.710;2023-04-15T11:53:04;5.40;;;3.88;;
45338;SDS011;31071;51.478;5.710;2023-04-15T11:55:39;4.80;;;3.45;;
45338;SDS011;31071;51.478;5.710;2023-04-15T11:58:17;3.85;;;3.20;;
45338;SDS011;31071;51.478;5.710;2023-04-15T12:00:45;3.38;;;2.97;;
45338;SDS011;31071;51.478;5.710;2023-04-15T12:06:34;3.47;;;2.90;;
45338;SDS011;31071;51.478;5.710;2023-04-15T12:11:35;6.15;;;3.47;;
45338;SDS011;31071;51.478;5.710;2023-04-15T12:14:23;3.25;;;2.70;;
45338;SDS011;31071;51.478;5.710;2023-04-15T12:16:53;3.13;;;2.65;;
45338;SDS011;31071;51.478;5.710;2023-04-15T12:19:35;3.13;;;2.72;;
45338;SDS011;31071;51.478;5.710;2023-04-15T12:22:12;3.45;;;3.00;;
45338;SDS011;31071;51.478;5.710;2023-04-15T12:24:40;4.47;;;2.97;;
45338;SDS011;31071;51.478;5.710;2023-04-15T12:27:12;3.63;;;3.25;;
45338;SDS011;31071;51.478;5.710;2023-04-15T12:29:39;4.25;;;2.83;;
45338;SDS011;31071;51.478;5.710;2023-04-15T12:32:07;2.78;;;2.30;;
45338;SDS011;31071;51.478;5.710;2023-04-15T12:34:38;2.85;;;2.35;;
45338;SDS011;31071;51.478;5.710;2023-04-15T12:37:06;2.30;;;2.10;;
45338;SDS011;31071;51.478;5.710;2023-04-15T12:39:34;4.70;;;2.60;;
45338;SDS011;31071;51.478;5.710;2023-04-15T12:42:02;3.72;;;2.65;;
45338;SDS011;31071;51.478;5.710;2023-04-15T12:44:29;5.22;;;3.25;;
45338;SDS011;31071;51.478;5.710;2023-04-15T12:46:55;5.85;;;3.00;;
45338;SDS011;31071;51.478;5.710;2023-04-15T12:49:21;3.17;;;2.67;;
45338;SDS011;31071;51.478;5.710;2023-04-15T12:51:48;3.55;;;3.00;;
45338;SDS011;31071;51.478;5.710;2023-04-15T12:54:18;3.72;;;2.53;;
45338;SDS011;31071;51.478;5.710;2023-04-15T12:56:48;3.53;;;2.70;;
45338;SDS011;31071;51.478;5.710;2023-04-15T12:59:34;3.00;;;2.70;;
45338;SDS011;31071;51.478;5.710;2023-04-15T13:02:00;3.55;;;2.92;;
45338;SDS011;31071;51.478;5.710;2023-04-15T13:04:26;5.10;;;2.50;;
45338;SDS011;31071;51.478;5.710;2023-04-15T13:06:54;3.10;;;2.80;;
45338;SDS011;31071;51.478;5.710;2023-04-15T13:09:20;2.97;;;2.63;;
45338;SDS011;31071;51.478;5.710;2023-04-15T13:11:45;2.72;;;2.53;;
45338;SDS011;31071;51.478;5.710;2023-04-15T13:14:11;3.10;;;2.70;;
45338;SDS011;31071;51.478;5.710;2023-04-15T13:16:37;4.72;;;2.40;;
45338;SDS011;31071;51.478;5.710;2023-04-15T13:19:02;3.28;;;2.88;;
45338;SDS011;31071;51.478;5.710;2023-04-15T13:21:28;3.03;;;2.50;;
45338;SDS011;31071;51.478;5.710;2023-04-15T13:23:56;4.63;;;2.45;;
45338;SDS011;31071;51.478;5.710;2023-04-15T13:26:21;3.08;;;2.28;;
45338;SDS011;31071;51.478;5.710;2023-04-15T13:28:47;4.32;;;2.85;;
45338;SDS011;31071;51.478;5.710;2023-04-15T13:31:12;3.58;;;2.40;;
45338;SDS011;31071;51.478;5.710;2023-04-15T13:33:38;4.15;;;2.40;;
45338;SDS011;31071;51.478;5.710;2023-04-15T13:36:04;3.53;;;2.25;;
45338;SDS011;31071;51.478;5.710;2023-04-15T13:38:30;4.57;;;2.63;;
45338;SDS011;31071;51.478;5.710;2023-04-15T13:40:55;2.60;;;2.40;;
45338;SDS011;31071;51.478;5.710;2023-04-15T13:43:21;4.43;;;2.55;;
45338;SDS011;31071;51.478;5.710;2023-04-15T13:45:46;2.28;;;2.08;;
45338;SDS011;31071;51.478;5.710;2023-04-15T13:48:12;5.80;;;2.90;;
45338;SDS011;31071;51.478;5.710;2023-04-15T13:50:38;2.58;;;2.10;;
45338;SDS011;31071;51.478;5.710;2023-04-15T13:53:05;2.58;;;2.33;;
45338;SDS011;31071;51.478;5.710;2023-04-15T13:55:30;5.35;;;2.25;;
45338;SDS011;31071;51.478;5.710;2023-04-15T13:57:58;3.97;;;2.50;;
45338;SDS011;31071;51.478;5.710;2023-04-15T14:00:24;3.90;;;2.35;;
45338;SDS011;31071;51.478;5.710;2023-04-15T14:02:50;3.30;;;2.28;;
45338;SDS011;31071;51.478;5.710;2023-04-15T14:05:15;5.22;;;2.88;;
45338;SDS011;31071;51.478;5.710;2023-04-15T14:07:41;4.43;;;2.45;;
45338;SDS011;31071;51.478;5.710;2023-04-15T14:10:07;3.08;;;2.40;;
45338;SDS011;31071;51.478;5.710;2023-04-15T14:12:32;4.38;;;2.25;;
45338;SDS011;31071;51.478;5.710;2023-04-15T14:14:58;3.72;;;2.45;;
45338;SDS011;31071;51.478;5.710;2023-04-15T14:17:26;2.38;;;2.17;;
45338;SDS011;31071;51.478;5.710;2023-04-15T14:19:51;2.13;;;1.92;;
45338;SDS011;31071;51.478;5.710;2023-04-15T14:22:17;2.15;;;1.70;;
45338;SDS011;31071;51.478;5.710;2023-04-15T14:24:43;2.15;;;1.60;;
45338;SDS011;31071;51.478;5.710;2023-04-15T14:27:11;4.05;;;2.00;;
45338;SDS011;31071;51.478;5.710;2023-04-15T14:30:19;4.32;;;1.95;;
45338;SDS011;31071;51.478;5.710;2023-04-15T14:32:45;2.78;;;1.65;;
45338;SDS011;31071;51.478;5.710;2023-04-15T14:35:10;4.30;;;1.85;;
45338;SDS011;31071;51.478;5.710;2023-04-15T14:37:36;2.08;;;1.20;;
45338;SDS011;31071;51.478;5.710;2023-04-15T14:40:01;4.00;;;1.80;;
45338;SDS011;31071;51.478;5.710;2023-04-15T14:42:27;4.28;;;1.50;;
45338;SDS011;31071;51.478;5.710;2023-04-15T14:44:52;3.30;;;1.35;;
45338;SDS011;31071;51.478;5.710;2023-04-15T14:47:18;1.20;;;1.10;;
45338;SDS011;31071;51.478;5.710;2023-04-15T14:49:44;1.30;;;1.13;;
45338;SDS011;31071;51.478;5.710;2023-04-15T14:52:09;3.38;;;1.35;;
45338;SDS011;31071;51.478;5.710;2023-04-15T14:54:35;1.75;;;1.15;;
45338;SDS011;31071;51.478;5.710;2023-04-15T14:57:00;2.13;;;1.25;;
45338;SDS011;31071;51.478;5.710;2023-04-15T14:59:28;1.05;;;0.90;;